KHGR

Hagerstown Regional-Richard A Henson Field Airport

Hagerstown, Maryland, USA
METAR KHGR 221953Z 17010KT 10SM CLR 13/M01 A3013 RMK AO2 SLP217 T01331006
Observed Flight Rules
Oct-22 @ 19:53 UTC (55 minutes ago) Visual Flight Rules
Wind Visibility Clouds
170° at 10 knots 10 miles
  • Clear skies
Temperatures Readings
Current 13°C / 55°F
Dewpoint -1°C / 30°F
Humidity 38%
Altimeter 30.13" Hg
Pressure 1021.7 hPa
Elevation 224
METAR KHGR 221953Z 17010KT 10SM CLR 13/M01 A3013 RMK AO2 SLP217 T01331006
Observed Flight Rules
Oct-22 @ 19:53 UTC
(55 minutes ago)
VFR
Wind Visibility
170° at 10 knots 10 miles
Clouds
  • Clear skies
Temperature Dewpoint
13°C / 55°F -1°C / 30°F
Humidity Altimeter Pressure
38% 30.13" Hg 1021.7 hPa